Brownstown, IL (62418)

11:08 AM CST on February 19, 2017 (GMT -0600)
East Brownstown | | Change Station
Active Advisory: Dense Fog Advisory

Elev 597 ft 38.99 °N, 88.95 °W | Updated 39 seconds ago

Overcast
Overcast
54.9 °F
Feels Like 54.9 °F
N
0.0
Wind Variable Wind from East

Today
High -- | Low -- °F
--% Chance of Precip.
Yesterday
High -- | Low -- °F
Precip. -- in
Pressure 30.11 in
Visibility 3.0 miles
Clouds Overcast 300 ft
Dew Point 51 °F
Humidity 86%
Rainfall 0.00 in
Snow Depth Not available.
6:41 AM 5:37 PM
Last Quarter, 42% visible
METAR K1H2 191655Z AUTO 13005KT 3SM BR OVC003 11/11 A3011 RMK AO2 T01130112
Pressure 30.11 in
Visibility 3.0 miles
Clouds Overcast 300 ft
Dew Point 51 °F
Humidity 86%
Rainfall 0.00 in
Snow Depth Not available.
6:41 AM 5:37 PM
Last Quarter, 42% visible
METAR K1H2 191655Z AUTO 13005KT 3SM BR OVC003 11/11 A3011 RMK AO2 T01130112

Get Your Daily Forecast Email!

Thanks for signing up!

Be on the lookout for a verification email in your inbox.

You'll start receiving the daily forecast at 8 AM.

×

10-Day Weather Forecast

Almanac

Astronomy

Feb. 19, 2017 Rise Set
Actual Time
Civil Twilight
Nautical Twilight
Astronomical Twilight
Moon
Length of Visible Light
Length of Day
Tomorrow will be .
, % of the Moon is Illuminated

Today's Extremes

State Highs State Lows

Community

WunderPhotos

Upload Photos

1,962,540 photos uploaded!

WunderBlog® & News

Nearby

Air Quality

  Air Quality AQ Index Pollutant
Not available.

Snow Depth

Station Depth Elevation

Earthquake Activity

City Distance Mag. Time & Date
Minimum magnitude displayed is 2.5.

Coastal Water Temperatures

Place Temperature

Stations

Nearby Weather Stations

Station Location Temp. Windchill Dew Point Humidity Wind Precip. Elev Updated Type
                   

Watches & Warnings

Dense Fog Advisory
Issued: 10:58 AM CST Feb. 19, 2017 – National Weather Service

... Dense fog advisory will expire at 11 am CST this morning...

Dense fog is lifting and dissipating, so the dense fog advisory
will be allowed to expire at 11 am.


Byrd


1058 am CST sun Feb 19 2017

... Dense fog advisory will expire at 11 am CST this morning...

Dense fog is lifting and dissipating, so the dense fog advisory
will be allowed to expire at 11 am.


Byrd